createdAt,value
2023-04-11T00:00:51.080Z,22.21
2023-04-11T00:01:51.159Z,22.21
2023-04-11T00:02:51.206Z,22.31
2023-04-11T00:03:51.195Z,22.26
2023-04-11T00:04:51.089Z,22.26
2023-04-11T00:05:51.060Z,22.23
2023-04-11T00:06:51.042Z,22.26
2023-04-11T00:07:51.039Z,22.27
2023-04-11T00:08:51.037Z,22.31
2023-04-11T00:09:51.036Z,22.27
2023-04-11T00:10:51.165Z,22.26
2023-04-11T00:11:51.033Z,22.35
2023-04-11T00:12:51.046Z,22.22
2023-04-11T00:13:51.027Z,22.32
2023-04-11T00:14:51.023Z,22.35
2023-04-11T00:15:51.023Z,22.32
2023-04-11T00:16:51.111Z,22.29
2023-04-11T00:17:51.032Z,22.26
2023-04-11T00:18:51.014Z,22.29
2023-04-11T00:19:57.995Z,22.29
2023-04-11T00:20:51.038Z,22.27
2023-04-11T00:21:51.045Z,22.34
2023-04-11T00:22:51.049Z,22.34
2023-04-11T00:23:51.054Z,22.29
2023-04-11T00:24:51.034Z,22.32
2023-04-11T00:25:51.024Z,22.34
2023-04-11T00:26:51.050Z,22.30
2023-04-11T00:27:51.018Z,22.30
2023-04-11T00:28:50.999Z,22.33
2023-04-11T00:29:50.993Z,22.32
2023-04-11T00:30:50.981Z,22.37
2023-04-11T00:31:51.554Z,22.34
2023-04-11T00:32:51.028Z,22.30
2023-04-11T00:33:50.938Z,22.27
2023-04-11T00:34:50.925Z,22.33
2023-04-11T00:35:50.992Z,22.33
2023-04-11T00:36:51.020Z,22.30
2023-04-11T00:37:50.888Z,22.40
2023-04-11T00:38:50.885Z,22.27
2023-04-11T00:39:50.867Z,22.33
2023-04-11T00:40:50.862Z,22.30
2023-04-11T00:41:50.858Z,22.32
2023-04-11T00:42:50.935Z,22.34
2023-04-11T00:43:50.852Z,22.33
2023-04-11T00:44:50.842Z,22.32
2023-04-11T00:45:50.881Z,22.32
2023-04-11T00:46:50.834Z,22.30
2023-04-11T00:47:50.917Z,22.32
2023-04-11T00:48:50.826Z,22.37
2023-04-11T00:49:50.810Z,22.29
2023-04-11T00:50:50.799Z,22.33
2023-04-11T00:51:50.802Z,22.32
2023-04-11T00:52:50.795Z,22.38
2023-04-11T00:53:50.781Z,22.30
2023-04-11T00:54:50.784Z,22.37
2023-04-11T00:55:50.770Z,22.30
2023-04-11T00:56:50.751Z,22.34
2023-04-11T00:57:50.742Z,22.35
2023-04-11T00:58:50.773Z,22.35
2023-04-11T00:59:50.736Z,22.35
2023-04-11T01:00:50.757Z,22.35
2023-04-11T01:01:50.937Z,22.33
2023-04-11T01:02:50.838Z,22.33
2023-04-11T01:03:50.864Z,22.35
2023-04-11T01:04:50.723Z,22.32
2023-04-11T01:05:50.727Z,22.32
2023-04-11T01:06:50.733Z,22.33
2023-04-11T01:07:50.736Z,22.29
2023-04-11T01:08:50.732Z,22.35
2023-04-11T01:09:50.724Z,22.32
2023-04-11T01:10:50.733Z,22.37
2023-04-11T01:11:50.751Z,22.33
2023-04-11T01:12:50.724Z,22.35
2023-04-11T01:13:50.738Z,22.33
2023-04-11T01:14:51.705Z,22.32
2023-04-11T01:15:50.726Z,22.33
2023-04-11T01:16:50.845Z,22.33
2023-04-11T01:17:50.739Z,22.35
2023-04-11T01:18:50.716Z,22.38
2023-04-11T01:19:50.696Z,22.33
2023-04-11T01:20:50.706Z,22.37
2023-04-11T01:21:50.691Z,22.38
2023-04-11T01:22:50.696Z,22.35
2023-04-11T01:23:50.691Z,22.37
2023-04-11T01:24:50.689Z,22.38
2023-04-11T01:25:50.685Z,22.37
2023-04-11T01:26:50.679Z,22.37
2023-04-11T01:27:50.658Z,22.30
2023-04-11T01:28:50.657Z,22.36
2023-04-11T01:29:50.639Z,22.37
2023-04-11T01:30:50.704Z,22.37
2023-04-11T01:31:50.621Z,22.35
2023-04-11T01:32:50.666Z,22.32
2023-04-11T01:33:50.590Z,22.33
2023-04-11T01:34:50.577Z,22.37
2023-04-11T01:35:50.624Z,22.32
2023-04-11T01:36:50.557Z,22.30
2023-04-11T01:37:50.564Z,22.35
2023-04-11T01:38:50.538Z,22.30
2023-04-11T01:39:50.520Z,22.33
2023-04-11T01:40:50.504Z,22.38
2023-04-11T01:41:50.491Z,22.35
2023-04-11T01:42:50.488Z,22.32
2023-04-11T01:43:50.472Z,22.37
2023-04-11T01:44:50.464Z,22.33
2023-04-11T01:45:50.460Z,22.37
2023-04-11T01:46:50.466Z,22.37
2023-04-11T01:47:51.038Z,22.35
2023-04-11T01:48:50.610Z,22.35
2023-04-11T01:49:50.404Z,22.32
2023-04-11T01:50:50.398Z,22.38
2023-04-11T01:51:50.389Z,22.35
2023-04-11T01:52:50.380Z,22.32
2023-04-11T01:53:50.361Z,22.37
2023-04-11T01:54:50.332Z,22.33
2023-04-11T01:55:50.326Z,22.35
2023-04-11T01:56:50.313Z,22.33
2023-04-11T01:57:50.284Z,22.32
2023-04-11T01:58:50.251Z,22.35
2023-04-11T01:59:50.227Z,22.33
2023-04-11T02:00:50.215Z,22.32
2023-04-11T02:01:50.243Z,22.32
2023-04-11T02:02:50.392Z,22.33
2023-04-11T02:03:50.252Z,22.28
2023-04-11T02:04:50.169Z,22.33
2023-04-11T02:05:50.149Z,22.37
2023-04-11T02:06:50.142Z,22.37
2023-04-11T02:07:50.124Z,22.35
2023-04-11T02:08:50.123Z,22.29
2023-04-11T02:09:50.102Z,22.38
2023-04-11T02:10:50.099Z,22.33
2023-04-11T02:11:50.084Z,22.33
2023-04-11T02:12:50.076Z,22.30
2023-04-11T02:13:50.057Z,22.32
2023-04-11T02:14:50.056Z,22.33
2023-04-11T02:15:50.068Z,22.35
2023-04-11T02:16:50.031Z,22.38
2023-04-11T02:17:50.036Z,22.33
2023-04-11T02:18:50.024Z,22.35
2023-04-11T02:19:49.986Z,22.33
2023-04-11T02:20:49.979Z,22.33
2023-04-11T02:21:49.968Z,22.30
2023-04-11T02:22:49.954Z,22.35
2023-04-11T02:23:49.948Z,22.35
2023-04-11T02:24:49.932Z,22.37
2023-04-11T02:25:49.925Z,22.38
2023-04-11T02:26:49.917Z,22.35
2023-04-11T02:27:49.899Z,22.38
2023-04-11T02:28:49.906Z,22.30
2023-04-11T02:29:49.900Z,22.38
2023-04-11T02:30:49.920Z,22.35
2023-04-11T02:31:49.990Z,22.37
2023-04-11T02:32:49.868Z,22.38
2023-04-11T02:33:49.839Z,22.37
2023-04-11T02:34:49.845Z,22.32
2023-04-11T02:35:49.904Z,22.40
2023-04-11T02:36:49.791Z,22.33
2023-04-11T02:37:49.796Z,22.29
2023-04-11T02:38:49.794Z,22.40
2023-04-11T02:39:49.784Z,22.33
2023-04-11T02:40:49.777Z,22.38
2023-04-11T02:41:49.782Z,22.35
2023-04-11T02:42:49.788Z,22.37
2023-04-11T02:43:49.778Z,22.33
2023-04-11T02:44:49.800Z,22.38
2023-04-11T02:45:50.964Z,22.37
2023-04-11T02:46:49.852Z,22.35
2023-04-11T02:47:49.834Z,22.35
2023-04-11T02:48:49.756Z,22.35
2023-04-11T02:49:49.729Z,22.40
2023-04-11T02:50:49.738Z,22.38
2023-04-11T02:51:49.694Z,22.38
2023-04-11T02:52:49.693Z,22.35
2023-04-11T02:53:49.656Z,22.40
2023-04-11T02:54:49.629Z,22.40
2023-04-11T02:55:49.612Z,22.41
2023-04-11T02:56:49.580Z,22.33
2023-04-11T02:57:49.564Z,22.38
2023-04-11T02:58:49.545Z,22.37
2023-04-11T02:59:49.522Z,22.40
2023-04-11T03:00:49.504Z,22.41
2023-04-11T03:01:49.588Z,22.37
2023-04-11T03:02:49.574Z,22.40
2023-04-11T03:03:49.506Z,22.33
2023-04-11T03:04:49.444Z,22.37
2023-04-11T03:05:49.428Z,22.43
2023-04-11T03:06:49.442Z,22.37
2023-04-11T03:07:49.413Z,22.43
2023-04-11T03:08:49.399Z,22.38
2023-04-11T03:09:49.368Z,22.37
2023-04-11T03:10:49.361Z,22.41
2023-04-11T03:11:49.345Z,22.44
2023-04-11T03:12:49.335Z,22.41
2023-04-11T03:13:49.323Z,22.44
2023-04-11T03:14:49.314Z,22.40
2023-04-11T03:15:49.347Z,22.43
2023-04-11T03:16:49.274Z,22.41
2023-04-11T03:17:49.265Z,22.44
2023-04-11T03:18:49.250Z,22.40
2023-04-11T03:19:49.233Z,22.38
2023-04-11T03:20:49.227Z,22.43
2023-04-11T03:21:49.216Z,22.38
2023-04-11T03:22:49.232Z,22.38
2023-04-11T03:23:49.194Z,22.41
2023-04-11T03:24:49.179Z,22.48
2023-04-11T03:25:49.186Z,22.40
2023-04-11T03:26:49.164Z,22.43
2023-04-11T03:27:49.177Z,22.43
2023-04-11T03:28:49.138Z,22.37
2023-04-11T03:29:49.124Z,22.38
2023-04-11T03:30:49.105Z,22.43
2023-04-11T03:31:49.181Z,22.45
2023-04-11T03:32:49.148Z,22.40
2023-04-11T03:33:49.091Z,22.35
2023-04-11T03:34:49.063Z,22.43
2023-04-11T03:35:49.060Z,22.41
2023-04-11T03:36:49.035Z,22.40
2023-04-11T03:37:49.023Z,22.44
2023-04-11T03:38:49.031Z,22.41
2023-04-11T03:39:48.999Z,22.43
2023-04-11T03:40:48.993Z,22.40
2023-04-11T03:41:49.010Z,22.43
2023-04-11T03:42:48.965Z,22.43
2023-04-11T03:43:48.959Z,22.41
2023-04-11T03:44:48.949Z,22.44
2023-04-11T03:45:48.938Z,22.41
2023-04-11T03:46:48.941Z,22.40
2023-04-11T03:47:48.967Z,22.38
2023-04-11T03:48:48.918Z,22.44
2023-04-11T03:49:48.923Z,22.44
2023-04-11T03:50:48.909Z,22.43
2023-04-11T03:51:48.901Z,22.44
2023-04-11T03:52:48.883Z,22.44
2023-04-11T03:53:48.880Z,22.41
2023-04-11T03:54:48.901Z,22.38
2023-04-11T03:55:48.887Z,22.44
2023-04-11T03:56:48.871Z,22.40
2023-04-11T03:57:48.868Z,22.43
2023-04-11T03:58:48.869Z,22.40
2023-04-11T03:59:48.859Z,22.44
2023-04-11T04:00:48.846Z,22.46
2023-04-11T04:01:48.905Z,22.46
2023-04-11T04:02:49.073Z,22.41
2023-04-11T04:03:49.031Z,22.48
2023-04-11T04:04:49.029Z,22.40
2023-04-11T04:05:48.815Z,22.46
2023-04-11T04:06:48.802Z,22.43
2023-04-11T04:07:48.811Z,22.40
2023-04-11T04:08:48.802Z,22.41
2023-04-11T04:09:48.790Z,22.43
2023-04-11T04:10:48.809Z,22.43
2023-04-11T04:11:48.771Z,22.43
2023-04-11T04:12:48.770Z,22.41
2023-04-11T04:13:48.769Z,22.41
2023-04-11T04:14:48.768Z,22.41
2023-04-11T04:15:48.751Z,22.48
2023-04-11T04:16:48.780Z,22.41
2023-04-11T04:17:48.775Z,22.41
2023-04-11T04:18:48.741Z,22.40
2023-04-11T04:19:48.729Z,22.40
2023-04-11T04:20:48.746Z,22.43
2023-04-11T04:21:48.788Z,22.40
2023-04-11T04:22:48.697Z,22.44
2023-04-11T04:23:48.726Z,22.41
2023-04-11T04:24:48.692Z,22.48
2023-04-11T04:25:48.710Z,22.41
2023-04-11T04:26:48.700Z,22.38
2023-04-11T04:27:48.675Z,22.40
2023-04-11T04:28:48.673Z,22.40
2023-04-11T04:29:52.038Z,22.44
2023-04-11T04:30:48.693Z,22.43
2023-04-11T04:31:48.740Z,22.44
2023-04-11T04:32:48.702Z,22.44
2023-04-11T04:33:48.659Z,22.43
2023-04-11T04:34:48.625Z,22.44
2023-04-11T04:35:48.636Z,22.46
2023-04-11T04:36:48.606Z,22.41
2023-04-11T04:37:48.589Z,22.43
2023-04-11T04:38:48.581Z,22.40
2023-04-11T04:39:48.559Z,22.41
2023-04-11T04:40:50.174Z,22.43
2023-04-11T04:41:48.541Z,22.44
2023-04-11T04:42:48.565Z,22.46
2023-04-11T04:43:48.533Z,22.41
2023-04-11T04:44:48.500Z,22.44
2023-04-11T04:45:48.518Z,22.46
2023-04-11T04:46:48.477Z,22.43
2023-04-11T04:47:48.477Z,22.43
2023-04-11T04:48:48.457Z,22.41
2023-04-11T04:49:48.451Z,22.44
2023-04-11T04:50:48.424Z,22.48
2023-04-11T04:51:48.416Z,22.43
2023-04-11T04:52:48.421Z,22.43
2023-04-11T04:53:48.427Z,22.43
2023-04-11T04:54:48.376Z,22.46
2023-04-11T04:55:48.358Z,22.44
2023-04-11T04:56:48.414Z,22.46
2023-04-11T04:57:48.340Z,22.44
2023-04-11T04:58:48.375Z,22.43
2023-04-11T04:59:48.302Z,22.40
2023-04-11T05:00:48.320Z,22.43
2023-04-11T05:01:48.344Z,22.43
2023-04-11T05:02:48.417Z,22.38
2023-04-11T05:03:48.399Z,22.40
2023-04-11T05:04:48.250Z,22.40
2023-04-11T05:05:48.246Z,22.43
2023-04-11T05:06:48.231Z,22.40
2023-04-11T05:07:48.209Z,22.41
2023-04-11T05:08:48.198Z,22.41
2023-04-11T05:09:48.202Z,22.43
2023-04-11T05:10:48.184Z,22.43
2023-04-11T05:11:48.152Z,22.44
2023-04-11T05:12:48.133Z,22.40
2023-04-11T05:13:48.118Z,22.37
2023-04-11T05:14:48.206Z,22.41
2023-04-11T05:15:48.111Z,22.44
2023-04-11T05:16:48.101Z,22.46
2023-04-11T05:17:48.109Z,22.47
2023-04-11T05:18:48.054Z,22.48
2023-04-11T05:19:48.032Z,22.44
2023-04-11T05:20:48.017Z,22.46
2023-04-11T05:21:48.084Z,22.54
2023-04-11T05:22:48.277Z,22.44
2023-04-11T05:23:48.110Z,22.51
2023-04-11T05:24:47.959Z,22.57
2023-04-11T05:25:47.938Z,22.62
2023-04-11T05:26:48.253Z,22.65
2023-04-11T05:27:47.923Z,22.75
2023-04-11T05:28:47.938Z,22.75
2023-04-11T05:29:47.871Z,22.81
2023-04-11T05:30:49.351Z,22.76
2023-04-11T05:31:48.623Z,22.84
2023-04-11T05:32:47.935Z,22.81
2023-04-11T05:33:48.669Z,22.83
2023-04-11T05:34:47.881Z,22.80
2023-04-11T05:35:47.923Z,22.89
2023-04-11T05:36:48.093Z,22.86
2023-04-11T05:37:47.874Z,22.86
2023-04-11T05:38:47.889Z,22.89
2023-04-11T05:39:48.599Z,22.83
2023-04-11T05:40:47.882Z,22.86
2023-04-11T05:41:48.099Z,22.82
2023-04-11T05:42:47.896Z,22.85
2023-04-11T05:43:47.883Z,22.83
2023-04-11T05:44:48.088Z,22.81
2023-04-11T05:45:48.197Z,22.90
2023-04-11T05:46:47.886Z,22.84
2023-04-11T05:47:47.904Z,22.90
2023-04-11T05:48:48.218Z,22.97
2023-04-11T05:49:48.124Z,23.14
2023-04-11T05:50:47.868Z,23.08
2023-04-11T05:51:47.842Z,23.22
2023-04-11T05:52:48.119Z,23.34
2023-04-11T05:53:48.202Z,23.43
2023-04-11T05:54:47.848Z,23.54
2023-04-11T05:55:47.800Z,23.63
2023-04-11T05:56:47.784Z,23.75
2023-04-11T05:57:48.192Z,23.82
2023-04-11T05:58:47.948Z,24.06
2023-04-11T05:59:48.184Z,24.05
2023-04-11T06:00:47.851Z,23.90
2023-04-11T06:01:47.822Z,23.53
2023-04-11T06:02:48.015Z,23.47
2023-04-11T06:03:47.833Z,23.48
2023-04-11T06:04:51.362Z,23.56
2023-04-11T06:05:47.767Z,23.72
2023-04-11T06:06:55.118Z,23.85
2023-04-11T06:07:47.726Z,23.85
2023-04-11T06:08:47.715Z,23.81
2023-04-11T06:09:48.130Z,23.86
2023-04-11T06:10:47.708Z,23.86
2023-04-11T06:11:47.703Z,23.86
2023-04-11T06:12:47.695Z,23.73
2023-04-11T06:13:48.211Z,23.62
2023-04-11T06:14:47.680Z,23.68
2023-04-11T06:15:47.698Z,23.56
2023-04-11T06:16:47.677Z,23.59
2023-04-11T06:17:47.739Z,23.62
2023-04-11T06:18:48.132Z,23.66
2023-04-11T06:19:47.631Z,23.56
2023-04-11T06:20:48.026Z,23.54
2023-04-11T06:21:48.097Z,23.50
2023-04-11T06:22:47.623Z,23.44
2023-04-11T06:23:48.134Z,23.35
2023-04-11T06:24:48.600Z,23.22
2023-04-11T06:25:48.605Z,23.14
2023-04-11T06:26:47.615Z,23.17
2023-04-11T06:27:47.625Z,23.21
2023-04-11T06:28:47.629Z,23.01
2023-04-11T06:29:47.595Z,23.03
2023-04-11T06:30:47.622Z,23.06
2023-04-11T06:31:47.652Z,23.14
2023-04-11T06:32:47.779Z,23.22
2023-04-11T06:33:47.610Z,23.41
2023-04-11T06:34:47.625Z,23.57
2023-04-11T06:35:47.647Z,23.66
2023-04-11T06:36:47.592Z,23.83
2023-04-11T06:37:47.652Z,23.84
2023-04-11T06:38:47.600Z,23.99
2023-04-11T06:39:47.667Z,24.11
2023-04-11T06:40:47.672Z,24.24
2023-04-11T06:41:47.721Z,24.29
2023-04-11T06:42:48.125Z,24.29
2023-04-11T06:43:47.759Z,24.81
2023-04-11T06:44:47.845Z,25.41
2023-04-11T06:45:47.820Z,25.98
2023-04-11T06:46:47.880Z,25.92
2023-04-11T06:47:49.166Z,25.76
2023-04-11T06:48:48.121Z,25.68
2023-04-11T06:49:47.923Z,25.61
2023-04-11T06:50:47.938Z,25.63
2023-04-11T06:51:48.436Z,25.61
2023-04-11T06:52:48.156Z,25.55
2023-04-11T06:53:47.982Z,25.44
2023-04-11T06:54:48.115Z,25.43
2023-04-11T06:55:51.307Z,25.40
2023-04-11T06:56:48.078Z,25.37
2023-04-11T06:57:48.072Z,25.34
2023-04-11T06:58:48.065Z,25.41
2023-04-11T06:59:48.187Z,25.32
2023-04-11T07:00:48.072Z,25.25
2023-04-11T07:01:48.132Z,25.18
2023-04-11T07:02:48.445Z,25.15
2023-04-11T07:03:48.495Z,25.09
2023-04-11T07:04:48.113Z,25.05
2023-04-11T07:05:48.105Z,25.00
2023-04-11T07:06:48.144Z,25.05
2023-04-11T07:07:48.090Z,24.97
2023-04-11T07:08:48.198Z,24.95
2023-04-11T07:09:48.073Z,24.92
2023-04-11T07:10:48.058Z,24.94
2023-04-11T07:11:48.103Z,24.93
2023-04-11T07:12:48.145Z,24.94
2023-04-11T07:13:48.628Z,24.88
2023-04-11T07:14:48.177Z,24.88
2023-04-11T07:15:48.241Z,24.82
2023-04-11T07:16:48.254Z,24.80
2023-04-11T07:17:50.249Z,24.83
2023-04-11T07:18:48.292Z,24.81
2023-04-11T07:19:48.270Z,24.77
2023-04-11T07:20:48.625Z,24.78
2023-04-11T07:21:48.248Z,24.77
2023-04-11T07:22:48.287Z,24.71
2023-04-11T07:23:48.276Z,24.71
2023-04-11T07:24:48.217Z,24.73
2023-04-11T07:25:48.675Z,24.65
2023-04-11T07:26:48.200Z,24.66
2023-04-11T07:27:48.184Z,24.62
2023-04-11T07:28:48.174Z,24.69
2023-04-11T07:29:48.187Z,24.64
2023-04-11T07:30:48.694Z,24.64
2023-04-11T07:31:48.181Z,24.63
2023-04-11T07:32:48.622Z,24.57
2023-04-11T07:33:48.127Z,24.52
2023-04-11T07:34:48.384Z,24.55
2023-04-11T07:35:48.154Z,24.54
2023-04-11T07:36:48.094Z,24.61
2023-04-11T07:37:48.098Z,24.48
2023-04-11T07:38:48.108Z,23.83
2023-04-11T07:39:48.126Z,24.10
2023-04-11T07:40:48.138Z,23.93
2023-04-11T07:41:51.242Z,24.22
2023-04-11T07:42:48.054Z,24.44
2023-04-11T07:43:48.500Z,24.61
2023-04-11T07:44:48.036Z,24.74
2023-04-11T07:45:48.060Z,24.84
2023-04-11T07:46:48.029Z,24.94
2023-04-11T07:47:48.105Z,24.95
2023-04-11T07:48:49.253Z,25.11
2023-04-11T07:49:48.001Z,25.17
2023-04-11T07:50:47.992Z,25.21
2023-04-11T07:51:48.014Z,25.27
2023-04-11T07:52:48.188Z,25.41
2023-04-11T07:53:47.999Z,25.41
2023-04-11T07:54:48.022Z,25.47
2023-04-11T07:55:47.989Z,25.55
2023-04-11T07:56:48.137Z,25.55
2023-04-11T07:57:48.551Z,25.58
2023-04-11T07:58:47.987Z,25.63
2023-04-11T07:59:47.999Z,25.74
2023-04-11T08:00:48.249Z,26.11
2023-04-11T08:01:48.653Z,25.99
2023-04-11T08:02:48.636Z,26.41
2023-04-11T08:03:48.740Z,26.44
2023-04-11T08:04:55.140Z,26.34
2023-04-11T08:05:48.617Z,26.27
2023-04-11T08:06:48.246Z,26.12
2023-04-11T08:07:47.910Z,26.11
2023-04-11T08:08:48.174Z,26.15
2023-04-11T08:09:47.947Z,26.09
2023-04-11T08:10:49.499Z,26.07
2023-04-11T08:11:48.177Z,26.12
2023-04-11T08:12:47.949Z,26.18
2023-04-11T08:13:48.982Z,26.33
2023-04-11T08:14:47.919Z,26.30
2023-04-11T08:15:47.928Z,26.30
2023-04-11T08:16:47.900Z,26.21
2023-04-11T08:17:48.919Z,26.20
2023-04-11T08:18:48.360Z,26.17
2023-04-11T08:19:47.882Z,26.20
2023-04-11T08:20:47.848Z,26.17
2023-04-11T08:21:47.849Z,26.24
2023-04-11T08:22:47.841Z,26.23
2023-04-11T08:23:48.319Z,26.18
2023-04-11T08:24:47.826Z,26.09
2023-04-11T08:25:48.182Z,26.12
2023-04-11T08:26:48.238Z,26.11
2023-04-11T08:27:47.799Z,26.09
2023-04-11T08:28:47.820Z,26.21
2023-04-11T08:29:47.801Z,26.23
2023-04-11T08:30:48.248Z,26.31
2023-04-11T08:31:48.188Z,26.25
2023-04-11T08:32:47.787Z,26.31
2023-04-11T08:33:48.200Z,26.33
2023-04-11T08:34:47.701Z,26.39
2023-04-11T08:35:47.712Z,26.34
2023-04-11T08:36:47.715Z,26.28
2023-04-11T08:37:47.880Z,26.71
2023-04-11T08:38:47.693Z,26.51
2023-04-11T08:39:47.661Z,26.52
2023-04-11T08:40:47.634Z,26.53
2023-04-11T08:41:46.614Z,26.55
2023-04-11T08:42:47.652Z,26.41
2023-04-11T08:43:47.802Z,26.41
2023-04-11T08:44:49.180Z,26.39
2023-04-11T08:45:48.180Z,26.43
2023-04-11T08:46:48.068Z,26.41
2023-04-11T08:47:47.687Z,26.41
2023-04-11T08:48:47.675Z,26.38
2023-04-11T08:49:47.743Z,26.35
2023-04-11T08:50:48.198Z,26.38
2023-04-11T08:51:47.838Z,26.37
2023-04-11T08:52:47.645Z,26.34
2023-04-11T08:53:48.493Z,26.32
2023-04-11T08:54:47.749Z,26.34
2023-04-11T08:55:47.876Z,26.37
2023-04-11T08:56:48.005Z,26.30
2023-04-11T08:57:47.853Z,26.26
2023-04-11T08:58:48.472Z,26.25
2023-04-11T08:59:47.761Z,26.29
2023-04-11T09:00:47.681Z,26.26
2023-04-11T09:01:47.745Z,26.27
2023-04-11T09:02:47.868Z,26.24
2023-04-11T09:03:47.707Z,26.25
2023-04-11T09:04:47.870Z,26.24
2023-04-11T09:05:47.694Z,26.25
2023-04-11T09:06:47.874Z,26.30
2023-04-11T09:07:47.781Z,26.34
2023-04-11T09:08:47.657Z,26.23
2023-04-11T09:09:47.666Z,26.29
2023-04-11T09:10:47.695Z,26.26
2023-04-11T09:11:47.957Z,26.23
2023-04-11T09:12:48.448Z,26.28
2023-04-11T09:13:48.206Z,26.29
2023-04-11T09:14:48.310Z,26.23
2023-04-11T09:15:47.734Z,26.26
2023-04-11T09:16:47.710Z,26.26
2023-04-11T09:17:47.759Z,26.23
2023-04-11T09:18:47.713Z,26.22
2023-04-11T09:19:49.298Z,26.20
2023-04-11T09:20:47.779Z,26.20
2023-04-11T09:21:47.720Z,26.24
2023-04-11T09:22:47.726Z,26.26
2023-04-11T09:23:48.231Z,26.25
2023-04-11T09:24:47.703Z,26.16
2023-04-11T09:25:47.722Z,26.11
2023-04-11T09:26:47.708Z,26.19
2023-04-11T09:27:47.693Z,26.20
2023-04-11T09:28:47.706Z,26.11
2023-04-11T09:29:47.701Z,26.19
2023-04-11T09:30:47.716Z,26.16
2023-04-11T09:31:47.723Z,26.20
2023-04-11T09:32:47.707Z,26.22
2023-04-11T09:33:47.707Z,26.13
2023-04-11T09:34:47.639Z,26.10
2023-04-11T09:35:47.646Z,26.11
2023-04-11T09:36:47.628Z,26.11
2023-04-11T09:37:47.632Z,26.17
2023-04-11T09:38:47.875Z,26.11
2023-04-11T09:39:47.642Z,26.17
2023-04-11T09:40:47.714Z,26.08
2023-04-11T09:41:47.723Z,26.13
2023-04-11T09:42:47.558Z,26.16
2023-04-11T09:43:47.564Z,26.11
2023-04-11T09:44:47.540Z,26.16
2023-04-11T09:45:54.636Z,26.14
2023-04-11T09:46:47.556Z,26.20
2023-04-11T09:47:47.530Z,26.19
2023-04-11T09:48:47.488Z,25.49
2023-04-11T09:49:47.465Z,25.80
2023-04-11T09:50:47.482Z,26.13
2023-04-11T09:51:48.222Z,26.05
2023-04-11T09:52:47.475Z,26.16
2023-04-11T09:53:47.847Z,26.27
2023-04-11T09:54:47.459Z,26.36
2023-04-11T09:55:47.415Z,26.45
2023-04-11T09:56:47.439Z,26.90
2023-04-11T09:57:47.774Z,27.31
2023-04-11T09:58:47.376Z,27.44
2023-04-11T09:59:47.377Z,27.51
2023-04-11T10:00:47.371Z,27.55
2023-04-11T10:01:47.804Z,27.75
2023-04-11T10:02:47.532Z,27.95
2023-04-11T10:03:47.760Z,27.82
2023-04-11T10:04:47.370Z,28.07
2023-04-11T10:05:48.872Z,28.12
2023-04-11T10:06:48.547Z,28.14
2023-04-11T10:07:47.722Z,28.12
2023-04-11T10:08:47.334Z,28.25
2023-04-11T10:09:47.267Z,29.00
2023-04-11T10:10:47.839Z,28.57
2023-04-11T10:11:47.724Z,28.56
2023-04-11T10:12:47.229Z,28.58
2023-04-11T10:13:47.222Z,28.63
2023-04-11T10:14:47.191Z,28.69
2023-04-11T10:15:47.171Z,28.71
2023-04-11T10:16:47.163Z,28.80
2023-04-11T10:17:47.249Z,28.88
2023-04-11T10:18:47.138Z,28.82
2023-04-11T10:19:47.092Z,29.45
2023-04-11T10:20:47.084Z,29.15
2023-04-11T10:21:47.067Z,29.20
2023-04-11T10:22:47.245Z,29.20
2023-04-11T10:23:47.023Z,29.28
2023-04-11T10:24:47.009Z,29.35
2023-04-11T10:25:47.091Z,29.31
2023-04-11T10:26:47.499Z,26.68
2023-04-11T10:27:47.212Z,26.68
2023-04-11T10:28:47.300Z,26.86
2023-04-11T10:29:48.373Z,27.50
2023-04-11T10:30:47.000Z,27.68
2023-04-11T10:31:47.048Z,28.28
2023-04-11T10:32:47.824Z,28.52
2023-04-11T10:33:47.218Z,28.65
2023-04-11T10:34:47.011Z,28.80
2023-04-11T10:35:46.973Z,28.87
2023-04-11T10:36:46.927Z,28.87
2023-04-11T10:37:48.263Z,28.92
2023-04-11T10:38:47.321Z,28.96
2023-04-11T10:39:46.887Z,28.97
2023-04-11T10:40:46.891Z,29.09
2023-04-11T10:41:46.901Z,29.05
2023-04-11T10:42:46.863Z,29.14
2023-04-11T10:43:47.241Z,29.25
2023-04-11T10:44:46.855Z,29.24
2023-04-11T10:45:46.850Z,29.30
2023-04-11T10:46:46.886Z,29.37
2023-04-11T10:47:46.829Z,29.38
2023-04-11T10:48:47.302Z,29.47
2023-04-11T10:49:47.366Z,29.59
2023-04-11T10:50:46.941Z,29.70
2023-04-11T10:51:46.959Z,29.73
2023-04-11T10:52:47.015Z,29.79
2023-04-11T10:53:47.269Z,29.94
2023-04-11T10:54:47.115Z,30.02
2023-04-11T10:55:47.152Z,30.07
2023-04-11T10:56:47.194Z,30.17
2023-04-11T10:57:47.288Z,30.29
2023-04-11T10:58:47.740Z,30.37
2023-04-11T10:59:47.312Z,30.45
2023-04-11T11:00:47.374Z,30.56
2023-04-11T11:01:52.370Z,30.61
2023-04-11T11:02:47.523Z,30.71
2023-04-11T11:03:47.820Z,30.72
2023-04-11T11:04:47.585Z,30.77
2023-04-11T11:05:48.272Z,30.77
2023-04-11T11:06:56.724Z,30.87
2023-04-11T11:07:47.811Z,31.00
2023-04-11T11:08:47.288Z,31.04
2023-04-11T11:09:47.206Z,31.13
2023-04-11T11:10:47.276Z,31.21
2023-04-11T11:11:47.248Z,31.36
2023-04-11T11:12:47.276Z,31.39
2023-04-11T11:13:47.212Z,31.42
2023-04-11T11:14:47.211Z,31.47
2023-04-11T11:15:47.061Z,31.34
2023-04-11T11:16:47.045Z,31.53
2023-04-11T11:17:47.277Z,31.48
2023-04-11T11:18:46.955Z,31.61
2023-04-11T11:19:46.964Z,31.83
2023-04-11T11:20:47.135Z,32.15
2023-04-11T11:21:46.875Z,29.68
2023-04-11T11:22:47.363Z,29.47
2023-04-11T11:23:47.616Z,29.30
2023-04-11T11:24:46.840Z,29.44
2023-04-11T11:25:46.857Z,29.93
2023-04-11T11:26:46.825Z,29.55
2023-04-11T11:27:46.828Z,29.86
2023-04-11T11:28:46.827Z,30.19
2023-04-11T11:29:47.230Z,30.42
2023-04-11T11:30:46.826Z,30.91
2023-04-11T11:31:46.921Z,30.84
2023-04-11T11:32:46.855Z,31.04
2023-04-11T11:33:46.900Z,31.32
2023-04-11T11:34:47.234Z,31.41
2023-04-11T11:35:47.002Z,31.47
2023-04-11T11:36:47.109Z,31.42
2023-04-11T11:37:47.264Z,31.42
2023-04-11T11:38:47.151Z,31.44
2023-04-11T11:39:47.147Z,31.40
2023-04-11T11:40:47.175Z,31.48
2023-04-11T11:41:47.180Z,31.38
2023-04-11T11:42:47.302Z,31.44
2023-04-11T11:43:47.159Z,31.44
2023-04-11T11:44:47.152Z,31.46
2023-04-11T11:45:47.160Z,31.52
2023-04-11T11:46:47.117Z,31.79
2023-04-11T11:47:47.310Z,31.60
2023-04-11T11:48:47.098Z,31.86
2023-04-11T11:49:47.115Z,31.25
2023-04-11T11:50:47.135Z,30.45
2023-04-11T11:51:47.168Z,31.29
2023-04-11T11:52:47.234Z,31.07
2023-04-11T11:53:47.285Z,30.78
2023-04-11T11:54:47.443Z,30.68
2023-04-11T11:55:47.447Z,30.64
2023-04-11T11:56:47.448Z,30.57
2023-04-11T11:57:47.473Z,30.51
2023-04-11T11:58:47.521Z,30.44
2023-04-11T11:59:47.548Z,30.42
2023-04-11T12:00:47.575Z,30.38
2023-04-11T12:01:47.676Z,30.30
2023-04-11T12:02:48.019Z,30.26
2023-04-11T12:03:47.914Z,30.19
2023-04-11T12:04:47.861Z,30.05
2023-04-11T12:05:47.724Z,29.95
2023-04-11T12:06:47.695Z,29.83
2023-04-11T12:07:47.924Z,29.70
2023-04-11T12:08:47.717Z,29.59
2023-04-11T12:09:47.689Z,29.49
2023-04-11T12:10:47.720Z,29.43
2023-04-11T12:11:47.698Z,29.40
2023-04-11T12:12:53.675Z,29.32
2023-04-11T12:13:47.776Z,29.32
2023-04-11T12:14:47.658Z,29.24
2023-04-11T12:15:47.686Z,29.17
2023-04-11T12:16:47.746Z,29.11
2023-04-11T12:17:47.622Z,29.11
2023-04-11T12:18:47.597Z,29.06
2023-04-11T12:19:47.595Z,28.99
2023-04-11T12:20:48.222Z,28.96
2023-04-11T12:21:47.765Z,28.99
2023-04-11T12:22:47.527Z,28.96
2023-04-11T12:23:48.058Z,28.90
2023-04-11T12:24:47.495Z,28.87
2023-04-11T12:25:47.513Z,28.86
2023-04-11T12:27:05.589Z,28.83
2023-04-11T12:27:47.445Z,28.80
2023-04-11T12:28:47.784Z,28.76
2023-04-11T12:29:47.639Z,28.74
2023-04-11T12:30:47.385Z,28.71
2023-04-11T12:31:47.442Z,28.69
2023-04-11T12:32:48.366Z,28.67
2023-04-11T12:33:47.334Z,28.64
2023-04-11T12:34:47.774Z,28.62
2023-04-11T12:35:47.698Z,28.60
2023-04-11T12:36:47.308Z,28.59
2023-04-11T12:37:47.279Z,28.55
2023-04-11T12:38:47.276Z,28.56
2023-04-11T12:39:47.752Z,28.56
2023-04-11T12:40:47.260Z,28.47
2023-04-11T12:41:47.224Z,28.46
2023-04-11T12:42:56.238Z,28.43
2023-04-11T12:43:47.185Z,28.43
2023-04-11T12:44:47.161Z,28.39
2023-04-11T12:45:47.418Z,28.35
2023-04-11T12:46:48.132Z,28.34
2023-04-11T12:47:47.117Z,28.32
2023-04-11T12:48:47.270Z,28.32
2023-04-11T12:49:47.074Z,28.26
2023-04-11T12:50:47.063Z,28.31
2023-04-11T12:51:47.589Z,28.31
2023-04-11T12:52:47.019Z,28.26